Time;durP1;ratioP1;P1;durP2;ratioP2;P2;SDS_P1;SDS_P2;PMS_P1;PMS_P2;Temp;Humidity;BMP_temperature;BMP_pressure;BME280_temperature;BME280_humidity;BME280_pressure;Samples;Min_cycle;Max_cycle;Signal;HPM_P1;HPM_P2
2021/01/26 00:00:21;;;;;;;22.80;14.05;;;1.70;5.40;;;;;;5047140;28;20530;-61
2021/01/26 00:02:48;;;;;;;23.98;14.70;;;1.70;7.10;;;;;;5066987;28;20241;-61
2021/01/26 00:05:15;;;;;;;20.65;14.15;;;1.70;1.00;;;;;;5047645;28;20192;-61
2021/01/26 00:07:40;;;;;;;19.42;14.32;;;1.70;1.00;;;;;;5052324;28;20192;-61
2021/01/26 00:10:08;;;;;;;19.57;13.73;;;1.70;1.30;;;;;;5052282;28;20211;-61
2021/01/26 00:12:34;;;;;;;19.35;14.98;;;1.80;1.00;;;;;;5055888;28;20641;-61
2021/01/26 00:15:00;;;;;;;22.08;14.70;;;1.80;1.00;;;;;;5057692;28;20192;-61
2021/01/26 00:17:26;;;;;;;21.48;14.75;;;1.80;1.00;;;;;;5048677;28;20520;-61
2021/01/26 00:19:52;;;;;;;20.70;14.10;;;1.80;1.00;;;;;;5046793;28;20195;-61
2021/01/26 00:22:17;;;;;;;19.97;14.63;;;1.80;1.00;;;;;;5049272;28;20246;-62
2021/01/26 00:24:43;;;;;;;22.17;14.20;;;1.80;1.00;;;;;;5053387;28;20618;-62
2021/01/26 00:27:08;;;;;;;24.33;15.03;;;1.70;1.00;;;;;;5063748;28;20184;-61
2021/01/26 00:29:34;;;;;;;23.20;14.90;;;1.70;1.00;;;;;;5066692;28;20212;-61
2021/01/26 00:32:00;;;;;;;19.77;13.93;;;1.70;1.00;;;;;;5047229;28;20184;-61
2021/01/26 00:34:26;;;;;;;20.30;14.80;;;1.70;1.00;;;;;;5055275;28;20540;-61
2021/01/26 00:36:51;;;;;;;20.60;13.33;;;1.70;1.00;;;;;;5062753;28;20190;-61
2021/01/26 00:39:17;;;;;;;19.10;13.77;;;1.70;1.00;;;;;;5065536;28;20273;-61
2021/01/26 00:41:43;;;;;;;20.57;14.27;;;1.60;1.00;;;;;;5065760;28;20194;-62
2021/01/26 00:44:08;;;;;;;20.37;14.33;;;1.60;2.60;;;;;;5051444;28;20958;-61
2021/01/26 00:46:34;;;;;;;18.33;14.00;;;1.60;2.60;;;;;;5050544;28;20210;-60
2021/01/26 00:48:59;;;;;;;20.33;14.23;;;1.50;1.00;;;;;;5063098;28;20667;-60
2021/01/26 00:51:25;;;;;;;20.70;13.80;;;1.60;1.00;;;;;;5047426;28;20189;-61
2021/01/26 00:53:50;;;;;;;20.87;14.23;;;1.60;1.00;;;;;;5048183;28;20181;-61
2021/01/26 00:56:16;;;;;;;17.20;12.90;;;1.60;1.00;;;;;;5068053;28;20194;-61
2021/01/26 00:58:41;;;;;;;19.73;13.27;;;1.60;1.00;;;;;;5052159;28;20339;-61
2021/01/26 01:01:07;;;;;;;22.50;14.10;;;1.60;1.00;;;;;;5048572;28;20179;-61
2021/01/26 01:03:33;;;;;;;20.30;14.37;;;1.60;1.00;;;;;;5040928;28;20192;-61
2021/01/26 01:05:58;;;;;;;19.30;14.20;;;1.60;1.00;;;;;;5057491;28;20179;-61
2021/01/26 01:08:24;;;;;;;19.40;13.83;;;1.50;1.00;;;;;;5055290;28;20286;-61
2021/01/26 01:10:52;;;;;;;21.70;14.13;;;1.50;1.00;;;;;;5046747;28;20217;-59
2021/01/26 01:13:18;;;;;;;20.33;14.10;;;1.50;1.00;;;;;;5058041;28;20220;-61
2021/01/26 01:15:44;;;;;;;19.08;13.20;;;1.50;1.00;;;;;;5054300;28;20507;-61
2021/01/26 01:18:10;;;;;;;16.67;12.20;;;1.40;1.00;;;;;;5057182;28;20189;-61
2021/01/26 01:20:36;;;;;;;21.38;13.55;;;1.40;1.00;;;;;;5052143;28;20196;-61
2021/01/26 01:23:02;;;;;;;18.47;13.00;;;1.30;1.00;;;;;;5057127;28;20196;-61
2021/01/26 01:25:27;;;;;;;19.55;13.68;;;1.30;5.10;;;;;;5060249;28;20310;-61
2021/01/26 01:27:53;;;;;;;17.03;13.10;;;1.30;5.90;;;;;;5046925;28;20331;-61
2021/01/26 01:30:26;;;;;;;20.43;14.40;;;1.30;13.90;;;;;;5043964;28;20213;-61
2021/01/26 01:32:51;;;;;;;21.77;13.55;;;1.30;11.40;;;;;;5045854;28;20420;-61
2021/01/26 01:35:18;;;;;;;20.83;13.57;;;1.30;12.90;;;;;;5035250;28;22978;-61
2021/01/26 01:37:43;;;;;;;19.08;14.00;;;1.30;11.00;;;;;;5047545;28;20317;-61
2021/01/26 01:40:13;;;;;;;21.50;13.70;;;1.30;16.40;;;;;;5046020;28;20319;-61
2021/01/26 01:42:38;;;;;;;17.30;12.77;;;1.30;17.70;;;;;;5047100;28;20261;-61
2021/01/26 01:45:06;;;;;;;20.93;13.37;;;1.40;16.30;;;;;;5048312;28;20180;-61
2021/01/26 01:47:41;;;;;;;20.75;14.73;;;1.40;13.50;;;;;;5049680;28;20199;-61
2021/01/26 01:50:11;;;;;;;20.33;14.10;;;1.40;15.60;;;;;;5047872;28;20211;-62
2021/01/26 01:52:38;;;;;;;18.55;13.73;;;1.40;11.70;;;;;;5050837;28;20199;-61
2021/01/26 01:55:20;;;;;;;23.63;13.98;;;1.40;5.50;;;;;;5050828;28;20640;-62
2021/01/26 01:58:00;;;;;;;19.00;13.90;;;1.40;6.70;;;;;;5054470;28;20176;-61
2021/01/26 02:00:26;;;;;;;17.65;13.05;;;1.40;8.10;;;;;;5050462;28;20638;-61
2021/01/26 02:02:57;;;;;;;16.70;12.93;;;1.30;12.60;;;;;;5050007;28;20195;-61
2021/01/26 02:05:23;;;;;;;20.55;13.57;;;1.30;15.00;;;;;;5050008;28;20902;-61
2021/01/26 02:07:52;;;;;;;19.03;13.30;;;1.30;9.70;;;;;;5064612;28;20216;-61
2021/01/26 02:10:18;;;;;;;19.67;13.98;;;1.30;11.30;;;;;;5045466;28;20462;-61
2021/01/26 02:12:44;;;;;;;20.20;13.27;;;1.30;12.40;;;;;;5054786;28;20185;-61
2021/01/26 02:15:10;;;;;;;17.67;13.10;;;1.30;11.20;;;;;;5051300;28;20924;-62
2021/01/26 02:18:07;;;;;;;24.75;13.63;;;1.30;10.70;;;;;;5048494;28;20185;-61
2021/01/26 02:20:54;;;;;;;14.95;11.75;;;1.30;10.50;;;;;;5050330;28;20334;-61
2021/01/26 02:23:39;;;;;;;18.23;11.57;;;1.30;6.80;;;;;;5058825;28;20197;-61
2021/01/26 02:26:42;;;;;;;18.23;12.70;;;1.30;7.40;;;;;;5064006;28;20210;-61
2021/01/26 02:29:21;;;;;;;17.33;11.70;;;1.40;1.00;;;;;;5057465;28;20568;-61
2021/01/26 02:32:14;;;;;;;17.75;12.52;;;1.30;1.00;;;;;;5048623;28;20182;-61
2021/01/26 02:35:01;;;;;;;13.90;11.02;;;1.40;1.00;;;;;;5052274;28;20191;-61
2021/01/26 02:38:01;;;;;;;14.77;10.95;;;1.30;1.00;;;;;;5053006;28;20246;-61
2021/01/26 02:40:59;;;;;;;16.05;11.70;;;1.30;1.00;;;;;;5058335;28;20527;-60
2021/01/26 02:43:30;;;;;;;15.27;12.07;;;1.40;1.10;;;;;;5047538;28;20266;-61
2021/01/26 02:46:06;;;;;;;16.08;11.25;;;1.30;1.00;;;;;;5051111;28;20184;-61
2021/01/26 02:48:39;;;;;;;15.38;11.73;;;1.30;1.00;;;;;;5065139;28;20188;-61
2021/01/26 02:51:08;;;;;;;18.00;12.20;;;1.40;1.00;;;;;;5048780;28;20193;-61
2021/01/26 02:53:36;;;;;;;15.20;11.52;;;1.40;1.00;;;;;;5060263;28;20183;-61
2021/01/26 02:56:12;;;;;;;15.57;11.88;;;1.40;1.00;;;;;;5065326;28;20566;-62
2021/01/26 02:59:08;;;;;;;17.67;12.25;;;1.30;1.00;;;;;;5057737;28;20382;-61
2021/01/26 03:01:40;;;;;;;18.73;12.85;;;1.30;1.00;;;;;;5046729;28;20236;-61
2021/01/26 03:04:12;;;;;;;18.38;12.73;;;1.30;1.00;;;;;;5055230;28;20287;-61
2021/01/26 03:06:42;;;;;;;17.13;12.88;;;1.40;1.00;;;;;;5056826;28;20187;-61
2021/01/26 03:09:23;;;;;;;19.38;12.43;;;1.30;1.00;;;;;;5057528;28;20625;-61
2021/01/26 03:12:00;;;;;;;16.38;11.98;;;1.30;1.80;;;;;;5043803;28;20175;-61
2021/01/26 03:14:30;;;;;;;16.02;11.80;;;1.30;5.20;;;;;;5063977;28;20217;-61
2021/01/26 03:17:25;;;;;;;18.08;12.73;;;1.30;5.80;;;;;;5057214;28;20183;-62
2021/01/26 03:19:53;;;;;;;16.75;11.27;;;1.30;6.10;;;;;;5044910;28;20187;-61
2021/01/26 03:22:22;;;;;;;21.40;12.68;;;1.30;1.00;;;;;;5049607;28;20195;-61
2021/01/26 03:24:52;;;;;;;16.52;12.30;;;1.30;1.00;;;;;;5065648;28;20191;-62
2021/01/26 03:27:21;;;;;;;17.88;12.27;;;1.30;1.00;;;;;;5067782;28;20251;-60
2021/01/26 03:29:50;;;;;;;17.95;12.20;;;1.30;1.00;;;;;;5051458;28;20205;-61
2021/01/26 03:32:22;;;;;;;17.63;11.95;;;1.30;1.00;;;;;;5049408;28;21321;-61
2021/01/26 03:34:47;;;;;;;17.45;13.40;;;1.30;1.00;;;;;;5063043;28;20176;-61
2021/01/26 03:37:16;;;;;;;18.37;12.63;;;1.30;1.00;;;;;;5048638;28;20192;-61
2021/01/26 03:39:42;;;;;;;15.82;11.73;;;1.40;1.00;;;;;;5030905;28;20234;-61
2021/01/26 03:42:08;;;;;;;15.10;11.67;;;1.30;1.00;;;;;;5048469;28;20191;-62
2021/01/26 03:44:34;;;;;;;18.43;13.00;;;1.30;1.00;;;;;;5048880;28;20919;-61
2021/01/26 03:47:02;;;;;;;18.57;13.07;;;1.30;1.00;;;;;;5048857;28;20188;-60
2021/01/26 03:49:49;;;;;;;20.75;13.15;;;1.30;1.00;;;;;;5048577;28;20483;-62
2021/01/26 03:52:33;;;;;;;16.17;12.90;;;1.20;1.00;;;;;;5047533;28;20178;-61
2021/01/26 03:55:10;;;;;;;19.40;12.88;;;1.20;1.00;;;;;;5049679;28;20169;-61
2021/01/26 03:57:54;;;;;;;17.27;12.20;;;1.10;1.00;;;;;;5049712;28;20243;-61
2021/01/26 04:00:25;;;;;;;16.83;11.88;;;1.10;1.00;;;;;;5053257;28;20637;-61
2021/01/26 04:03:18;;;;;;;19.00;12.63;;;1.10;1.00;;;;;;5052533;28;20191;-61
2021/01/26 04:06:10;;;;;;;16.92;12.27;;;1.00;1.00;;;;;;5067711;28;20256;-61
2021/01/26 04:08:51;;;;;;;19.58;12.05;;;0.90;1.00;;;;;;5050783;28;20190;-61
2021/01/26 04:11:28;;;;;;;18.77;12.10;;;0.90;1.00;;;;;;5045192;28;20326;-60
2021/01/26 04:14:23;;;;;;;17.90;11.98;;;0.80;1.00;;;;;;5056390;28;20191;-61
2021/01/26 04:17:07;;;;;;;15.30;11.35;;;0.80;1.00;;;;;;5054794;28;20269;-61
2021/01/26 04:19:39;;;;;;;16.08;11.30;;;0.80;1.00;;;;;;5052376;28;20190;-61
2021/01/26 04:22:07;;;;;;;19.23;11.80;;;0.70;1.00;;;;;;5066787;28;20946;-61
2021/01/26 04:24:34;;;;;;;17.13;12.82;;;0.60;1.00;;;;;;5031613;28;20202;-62
2021/01/26 04:27:10;;;;;;;17.40;11.63;;;0.40;1.00;;;;;;5056035;28;20597;-61
2021/01/26 04:29:35;;;;;;;17.92;11.63;;;0.30;1.60;;;;;;5056441;28;20780;-61
2021/01/26 04:32:01;;;;;;;16.50;11.87;;;0.20;8.60;;;;;;5051891;28;20221;-61
2021/01/26 04:34:26;;;;;;;18.80;11.80;;;0.10;9.10;;;;;;5062057;28;20180;-61
2021/01/26 04:36:52;;;;;;;15.50;9.30;;;0.00;15.30;;;;;;5048830;28;20248;-61
2021/01/26 04:39:17;;;;;;;13.70;9.83;;;0.10;1.00;;;;;;5047918;28;20253;-60
2021/01/26 04:41:55;;;;;;;15.73;10.60;;;0.20;1.00;;;;;;5064241;28;20185;-61
2021/01/26 04:44:48;;;;;;;13.82;10.25;;;0.20;1.00;;;;;;5044486;28;20197;-61
2021/01/26 04:47:21;;;;;;;16.38;10.23;;;0.20;1.00;;;;;;5053559;28;20182;-62
2021/01/26 04:50:01;;;;;;;14.68;10.25;;;0.10;1.00;;;;;;5058389;28;20242;-61
2021/01/26 04:52:59;;;;;;;12.45;8.55;;;0.10;1.00;;;;;;5058475;28;20225;-61
2021/01/26 04:55:31;;;;;;;14.40;10.38;;;0.10;1.00;;;;;;5010311;28;20190;-61
2021/01/26 04:58:25;;;;;;;12.07;9.35;;;0.10;1.00;;;;;;5050057;28;20266;-61
2021/01/26 05:01:25;;;;;;;14.77;9.05;;;0.10;1.00;;;;;;5056828;28;20177;-61
2021/01/26 05:03:59;;;;;;;13.65;10.02;;;0.20;1.00;;;;;;5050356;28;20193;-62
2021/01/26 05:06:33;;;;;;;11.85;8.38;;;0.20;1.00;;;;;;5051619;28;20198;-62
2021/01/26 05:09:02;;;;;;;14.20;9.23;;;0.10;1.00;;;;;;5045674;28;20758;-61
2021/01/26 05:11:32;;;;;;;15.00;10.32;;;0.10;1.00;;;;;;5062858;28;20210;-61
2021/01/26 05:14:05;;;;;;;11.20;8.63;;;0.10;1.00;;;;;;5042710;28;20191;-61
2021/01/26 05:16:51;;;;;;;12.57;9.00;;;0.00;1.00;;;;;;5048661;28;20607;-61
2021/01/26 05:19:24;;;;;;;11.65;8.52;;;0.10;1.00;;;;;;5048371;28;20202;-61
2021/01/26 05:22:05;;;;;;;15.55;9.57;;;0.10;1.00;;;;;;5050847;28;20182;-62
2021/01/26 05:24:48;;;;;;;9.60;7.80;;;0.00;1.00;;;;;;5051369;28;20520;-63
2021/01/26 05:27:14;;;;;;;12.30;8.80;;;0.10;1.00;;;;;;5028096;28;20339;-61
2021/01/26 05:29:41;;;;;;;14.50;8.80;;;0.20;1.00;;;;;;5054549;28;20426;-61
2021/01/26 05:32:10;;;;;;;10.52;7.97;;;0.20;1.00;;;;;;5052506;28;20556;-61
2021/01/26 05:34:37;;;;;;;9.98;7.97;;;0.30;1.00;;;;;;5054891;28;20186;-61
2021/01/26 05:37:12;;;;;;;10.20;7.88;;;0.30;1.00;;;;;;5054757;28;20872;-61
2021/01/26 05:39:45;;;;;;;12.43;8.88;;;0.30;1.00;;;;;;5058498;28;20228;-61
2021/01/26 05:42:13;;;;;;;12.23;7.85;;;0.30;1.00;;;;;;5056403;28;20273;-61
2021/01/26 05:44:41;;;;;;;11.55;8.13;;;0.30;1.00;;;;;;5052051;28;20193;-61
2021/01/26 05:47:22;;;;;;;9.68;7.90;;;0.20;1.00;;;;;;5058167;28;20188;-61
2021/01/26 05:49:48;;;;;;;11.75;8.02;;;0.30;1.00;;;;;;5034950;28;20211;-62
2021/01/26 05:52:13;;;;;;;11.63;7.87;;;0.30;1.00;;;;;;5051742;28;20196;-61
2021/01/26 05:54:57;;;;;;;11.43;8.00;;;0.30;1.00;;;;;;5042790;28;20197;-62
2021/01/26 05:57:36;;;;;;;10.25;7.80;;;0.30;1.00;;;;;;5032117;28;20190;-62
2021/01/26 06:00:22;;;;;;;12.77;8.45;;;0.20;1.00;;;;;;5057182;28;20640;-60
2021/01/26 06:03:04;;;;;;;10.52;8.77;;;0.20;1.00;;;;;;5049780;28;20721;-62
2021/01/26 06:05:29;;;;;;;10.20;7.30;;;0.20;1.00;;;;;;5070564;28;20283;-62
2021/01/26 06:08:14;;;;;;;10.70;8.20;;;0.20;1.00;;;;;;5053199;28;20269;-62
2021/01/26 06:10:44;;;;;;;11.73;8.00;;;0.30;1.00;;;;;;5051397;28;20641;-62
2021/01/26 06:13:11;;;;;;;18.83;16.83;;;0.30;1.00;;;;;;5050364;28;20182;-62
2021/01/26 06:15:39;;;;;;;10.57;9.13;;;0.30;1.00;;;;;;5051464;28;20195;-62
2021/01/26 06:18:11;;;;;;;9.02;7.43;;;0.20;1.00;;;;;;5033271;28;20173;-62
2021/01/26 06:20:38;;;;;;;10.48;7.55;;;0.20;1.00;;;;;;5050315;28;20190;-62
2021/01/26 06:23:20;;;;;;;10.10;7.65;;;0.30;1.00;;;;;;5051446;28;20155;-61
2021/01/26 06:25:57;;;;;;;10.32;8.10;;;0.40;1.00;;;;;;5033320;28;20174;-62
2021/01/26 06:28:41;;;;;;;9.40;7.40;;;0.40;1.00;;;;;;5051228;28;20193;-62
2021/01/26 06:31:28;;;;;;;9.20;6.75;;;0.30;1.00;;;;;;5048258;28;20198;-61
2021/01/26 06:34:19;;;;;;;10.30;8.02;;;0.30;1.00;;;;;;5030834;28;20190;-62
2021/01/26 06:37:11;;;;;;;9.10;7.70;;;0.30;1.00;;;;;;5030320;28;20175;-62
2021/01/26 06:40:05;;;;;;;9.65;7.72;;;0.30;1.00;;;;;;5042795;28;20715;-62
2021/01/26 06:43:13;;;;;;;10.50;7.65;;;0.30;1.00;;;;;;5049461;28;20213;-61
2021/01/26 06:46:26;;;;;;;9.02;7.22;;;0.30;1.00;;;;;;5050957;28;20174;-61
2021/01/26 06:49:00;;;;;;;10.10;7.82;;;0.20;1.00;;;;;;4968885;28;21035;-62
2021/01/26 06:51:34;;;;;;;9.38;8.00;;;0.20;1.00;;;;;;5024799;28;20189;-62
2021/01/26 06:54:16;;;;;;;10.02;7.90;;;0.20;1.00;;;;;;5050710;28;20169;-62
2021/01/26 06:57:15;;;;;;;12.05;7.78;;;0.10;1.00;;;;;;5048836;28;20236;-61
2021/01/26 06:59:59;;;;;;;10.65;8.65;;;0.20;1.00;;;;;;5053018;28;20680;-61
2021/01/26 07:02:34;;;;;;;14.38;8.50;;;0.20;1.00;;;;;;5067920;28;20194;-61
2021/01/26 07:05:06;;;;;;;11.32;8.50;;;0.20;1.00;;;;;;5054433;28;20196;-60
2021/01/26 07:07:59;;;;;;;10.57;8.13;;;0.20;1.00;;;;;;5050611;28;20186;-61
2021/01/26 07:10:39;;;;;;;12.38;9.48;;;0.30;1.00;;;;;;5049339;28;20300;-62
2021/01/26 07:13:12;;;;;;;13.80;8.85;;;0.30;1.00;;;;;;5042997;28;20461;-60
2021/01/26 07:16:00;;;;;;;12.25;8.18;;;0.40;1.00;;;;;;5060495;28;20179;-60
2021/01/26 07:18:42;;;;;;;11.57;8.48;;;0.40;1.00;;;;;;5017232;28;20203;-60
2021/01/26 07:21:49;;;;;;;9.05;7.25;;;0.50;1.00;;;;;;5052125;28;20980;-60
2021/01/26 07:24:50;;;;;;;11.50;8.20;;;0.60;1.00;;;;;;5025186;28;20222;-61
2021/01/26 07:27:15;;;;;;;10.38;8.10;;;0.70;1.00;;;;;;5015244;28;20305;-60
2021/01/26 07:30:03;;;;;;;11.30;7.47;;;0.70;1.00;;;;;;5065115;28;20209;-60
2021/01/26 07:32:49;;;;;;;11.20;8.07;;;0.60;1.00;;;;;;5060378;28;20781;-60
2021/01/26 07:35:26;;;;;;;12.80;7.70;;;0.70;1.00;;;;;;5055495;28;20218;-65
2021/01/26 07:38:00;;;;;;;10.90;7.82;;;0.60;1.00;;;;;;5043324;28;20664;-63
2021/01/26 07:40:46;;;;;;;9.68;7.18;;;0.70;1.00;;;;;;5049074;28;20250;-62
2021/01/26 07:43:44;;;;;;;10.50;7.78;;;0.70;1.00;;;;;;5049152;28;20181;-63
2021/01/26 07:46:27;;;;;;;9.57;7.50;;;0.80;1.00;;;;;;5038205;28;20199;-63
2021/01/26 07:49:24;;;;;;;10.63;8.77;;;0.90;1.00;;;;;;5049008;28;20505;-63
2021/01/26 07:51:56;;;;;;;7.88;7.07;;;1.00;1.00;;;;;;5048554;28;20292;-63
2021/01/26 07:54:30;;;;;;;10.82;8.23;;;1.00;1.00;;;;;;5049289;28;20206;-63
2021/01/26 07:57:00;;;;;;;9.63;7.22;;;1.00;1.00;;;;;;5048432;28;20217;-63
2021/01/26 07:59:31;;;;;;;9.73;8.10;;;1.00;1.00;;;;;;5051323;28;20776;-63
2021/01/26 08:02:03;;;;;;;9.68;8.45;;;1.00;1.00;;;;;;5062252;28;20625;-63
2021/01/26 08:04:37;;;;;;;15.68;10.75;;;1.10;1.00;;;;;;5036378;28;20207;-63
2021/01/26 08:07:04;;;;;;;13.43;9.98;;;1.20;1.00;;;;;;5050604;28;20188;-63
2021/01/26 08:09:43;;;;;;;11.13;9.50;;;1.30;1.00;;;;;;5050796;28;20204;-63
2021/01/26 08:12:15;;;;;;;12.20;9.43;;;1.40;1.00;;;;;;5052705;28;20172;-63
2021/01/26 08:14:53;;;;;;;11.50;8.73;;;1.50;1.00;;;;;;5033922;28;20193;-62
2021/01/26 08:17:31;;;;;;;10.07;8.45;;;1.50;1.00;;;;;;5051182;28;20185;-63
2021/01/26 08:20:07;;;;;;;15.95;9.68;;;1.60;1.00;;;;;;5051995;28;20186;-60
2021/01/26 08:22:38;;;;;;;11.18;8.45;;;1.70;1.00;;;;;;5053244;28;20298;-61
2021/01/26 08:25:32;;;;;;;12.25;8.55;;;1.70;1.00;;;;;;5049109;28;20291;-63
2021/01/26 08:28:05;;;;;;;9.65;7.95;;;1.70;1.00;;;;;;5047976;28;20188;-64
2021/01/26 08:30:48;;;;;;;12.50;9.23;;;1.70;1.00;;;;;;5054646;28;20296;-63
2021/01/26 08:33:28;;;;;;;9.15;8.10;;;1.80;1.00;;;;;;5056000;28;20261;-62
2021/01/26 08:36:24;;;;;;;13.35;8.98;;;1.90;1.00;;;;;;5047925;28;20259;-60
2021/01/26 08:39:06;;;;;;;10.68;8.73;;;1.90;1.00;;;;;;5053830;28;20699;-60
2021/01/26 08:41:35;;;;;;;11.77;9.13;;;1.90;1.00;;;;;;5051266;28;20176;-60
2021/01/26 08:44:01;;;;;;;11.40;8.63;;;2.00;1.00;;;;;;5051260;28;20193;-61
2021/01/26 08:46:36;;;;;;;10.63;8.30;;;2.00;1.00;;;;;;5052341;28;20231;-60
2021/01/26 08:49:16;;;;;;;10.65;8.32;;;2.10;1.00;;;;;;5028653;28;20969;-61
2021/01/26 08:51:42;;;;;;;12.82;9.32;;;2.10;1.00;;;;;;5054007;28;20192;-61
2021/01/26 08:54:08;;;;;;;10.97;8.60;;;2.20;1.00;;;;;;5052616;28;20191;-58
2021/01/26 08:56:36;;;;;;;9.60;8.10;;;2.20;1.00;;;;;;5049736;28;20188;-65
2021/01/26 08:59:03;;;;;;;12.02;8.70;;;2.30;1.00;;;;;;5033720;28;20248;-64
2021/01/26 09:01:34;;;;;;;12.30;8.88;;;2.40;1.00;;;;;;5059362;28;20181;-61
2021/01/26 09:04:32;;;;;;;11.13;8.75;;;2.40;1.00;;;;;;5067410;28;20200;-61
2021/01/26 09:06:58;;;;;;;9.60;7.97;;;2.50;1.00;;;;;;5062008;28;20176;-61
2021/01/26 09:09:23;;;;;;;11.13;9.10;;;2.60;1.00;;;;;;5066230;28;20277;-61
2021/01/26 09:11:55;;;;;;;13.37;9.00;;;2.60;1.00;;;;;;5051701;28;20236;-65
2021/01/26 09:14:45;;;;;;;14.35;10.32;;;2.60;1.00;;;;;;5060636;28;20180;-63
2021/01/26 09:17:33;;;;;;;10.32;9.20;;;2.60;1.00;;;;;;5066946;28;20544;-65
2021/01/26 09:20:09;;;;;;;12.35;9.07;;;2.60;1.00;;;;;;5054723;28;20190;-65
2021/01/26 09:22:35;;;;;;;11.60;9.48;;;2.50;1.00;;;;;;5042858;28;20200;-64
2021/01/26 09:25:20;;;;;;;13.48;9.38;;;2.60;1.00;;;;;;5048948;28;20688;-64
2021/01/26 09:28:08;;;;;;;12.43;9.95;;;2.60;1.00;;;;;;5056500;28;20616;-63
2021/01/26 09:30:36;;;;;;;13.65;10.25;;;2.60;1.00;;;;;;5048392;28;20202;-61
2021/01/26 09:33:23;;;;;;;13.30;10.07;;;2.70;1.00;;;;;;5049861;28;20200;-62
2021/01/26 09:35:52;;;;;;;16.27;10.10;;;2.80;1.00;;;;;;5053051;28;20186;-60
2021/01/26 09:38:20;;;;;;;12.50;9.95;;;2.80;1.00;;;;;;5052490;28;20196;-61
2021/01/26 09:41:14;;;;;;;14.57;10.30;;;2.80;1.00;;;;;;5052262;28;20266;-64
2021/01/26 09:43:45;;;;;;;12.40;10.43;;;2.90;1.00;;;;;;5050721;28;20182;-64
2021/01/26 09:46:28;;;;;;;12.43;9.52;;;2.90;1.00;;;;;;5050436;28;20252;-64
2021/01/26 09:48:59;;;;;;;11.48;9.15;;;2.90;1.00;;;;;;5050438;28;20189;-64
2021/01/26 09:51:28;;;;;;;11.65;9.27;;;2.80;1.00;;;;;;5048875;28;20182;-64
2021/01/26 09:54:06;;;;;;;12.50;9.35;;;2.80;1.00;;;;;;5056477;28;20234;-61
2021/01/26 09:56:35;;;;;;;12.38;8.90;;;2.80;1.00;;;;;;5061885;28;20200;-61
2021/01/26 09:59:02;;;;;;;11.52;9.70;;;2.90;1.00;;;;;;5050200;28;20196;-61
2021/01/26 10:01:30;;;;;;;10.70;8.98;;;2.90;1.00;;;;;;5050458;28;20189;-61
2021/01/26 10:04:03;;;;;;;12.48;10.00;;;2.90;1.00;;;;;;5049989;28;20197;-61
2021/01/26 10:06:29;;;;;;;13.98;9.27;;;2.90;1.00;;;;;;5050905;28;20534;-61
2021/01/26 10:08:55;;;;;;;17.23;10.80;;;2.90;1.00;;;;;;5051199;28;20228;-62
2021/01/26 10:11:29;;;;;;;12.50;9.83;;;2.90;1.00;;;;;;5055680;28;20190;-62
2021/01/26 10:14:33;;;;;;;13.45;10.50;;;2.90;1.00;;;;;;5060503;28;20431;-63
2021/01/26 10:17:00;;;;;;;12.85;10.20;;;3.00;1.00;;;;;;4968267;28;20279;-62
2021/01/26 10:19:33;;;;;;;12.30;9.95;;;2.90;1.00;;;;;;4957724;28;20200;-62
2021/01/26 10:22:12;;;;;;;12.85;9.65;;;2.90;1.00;;;;;;5003286;28;20240;-62
2021/01/26 10:24:38;;;;;;;11.60;9.65;;;2.80;1.00;;;;;;5061117;28;20178;-61
2021/01/26 10:27:18;;;;;;;12.93;9.35;;;2.60;1.00;;;;;;5065251;28;20262;-61
2021/01/26 10:29:44;;;;;;;12.55;9.73;;;2.60;1.00;;;;;;5040913;28;20239;-62
2021/01/26 10:32:13;;;;;;;11.82;8.88;;;2.40;1.00;;;;;;5049569;28;20526;-61
2021/01/26 10:34:42;;;;;;;13.43;9.95;;;2.40;1.00;;;;;;5050756;28;20243;-60
2021/01/26 10:37:15;;;;;;;12.32;10.18;;;2.40;1.00;;;;;;5034604;28;20187;-61
2021/01/26 10:39:43;;;;;;;12.88;9.35;;;2.40;1.00;;;;;;5032748;28;20596;-61
2021/01/26 10:42:24;;;;;;;12.52;9.55;;;2.40;1.00;;;;;;5048053;28;20186;-61
2021/01/26 10:44:54;;;;;;;14.45;10.60;;;2.30;1.00;;;;;;5050620;28;20169;-61
2021/01/26 10:47:28;;;;;;;14.55;10.18;;;2.20;1.00;;;;;;5030893;28;20173;-61
2021/01/26 10:49:57;;;;;;;13.55;10.38;;;2.00;1.00;;;;;;5048591;28;20831;-61
2021/01/26 10:52:41;;;;;;;12.63;10.55;;;1.90;1.00;;;;;;5050086;28;20157;-61
2021/01/26 10:55:10;;;;;;;14.93;11.40;;;1.90;1.00;;;;;;5049320;28;20203;-62
2021/01/26 10:57:35;;;;;;;14.98;11.05;;;1.80;1.00;;;;;;5049049;28;20196;-62
2021/01/26 11:00:01;;;;;;;16.00;11.33;;;1.80;1.00;;;;;;5052094;28;20199;-61
2021/01/26 11:02:26;;;;;;;13.83;10.10;;;1.70;1.00;;;;;;5061223;28;20202;-61
2021/01/26 11:04:52;;;;;;;13.13;10.33;;;1.70;1.00;;;;;;5048302;28;20267;-61
2021/01/26 11:07:18;;;;;;;15.03;10.37;;;1.80;1.00;;;;;;5049769;28;20199;-61
2021/01/26 11:09:44;;;;;;;15.03;10.83;;;1.80;3.20;;;;;;5050415;28;20209;-61
2021/01/26 11:12:10;;;;;;;15.10;11.18;;;1.80;6.10;;;;;;5063715;28;20967;-62
2021/01/26 11:14:35;;;;;;;13.00;9.73;;;1.80;9.00;;;;;;5069595;28;20189;-61
2021/01/26 11:17:01;;;;;;;14.03;10.90;;;1.90;13.50;;;;;;5061710;28;20227;-62
2021/01/26 11:19:29;;;;;;;12.77;10.43;;;1.90;15.70;;;;;;5068490;28;20669;-61
2021/01/26 11:21:54;;;;;;;14.20;10.68;;;1.80;17.20;;;;;;5064026;28;20441;-62
2021/01/26 11:24:20;;;;;;;14.07;10.80;;;1.80;20.70;;;;;;5067377;28;20200;-62
2021/01/26 11:26:46;;;;;;;16.43;11.40;;;1.80;23.30;;;;;;5056206;28;20531;-61
2021/01/26 11:29:11;;;;;;;15.03;11.60;;;1.80;28.40;;;;;;5046058;28;20196;-61
2021/01/26 11:31:37;;;;;;;16.50;11.33;;;1.80;30.90;;;;;;5058647;28;20189;-61
2021/01/26 11:34:03;;;;;;;15.50;11.17;;;1.90;33.00;;;;;;5064776;28;20210;-62
2021/01/26 11:36:28;;;;;;;15.77;11.05;;;1.80;33.80;;;;;;5059568;28;20185;-61
2021/01/26 11:38:54;;;;;;;17.10;10.23;;;1.80;36.20;;;;;;5049428;28;20698;-61
2021/01/26 11:41:20;;;;;;;14.70;10.80;;;1.80;40.30;;;;;;5069130;28;20188;-61
2021/01/26 11:43:45;;;;;;;18.20;12.30;;;1.70;41.20;;;;;;5052379;28;20211;-62
2021/01/26 11:46:11;;;;;;;15.90;11.47;;;1.70;46.10;;;;;;5061625;28;20189;-61
2021/01/26 11:48:36;;;;;;;14.60;11.50;;;1.70;51.90;;;;;;5062258;28;20189;-61
2021/01/26 11:51:03;;;;;;;21.37;12.80;;;1.70;55.70;;;;;;5047441;28;20280;-61
2021/01/26 11:53:29;;;;;;;17.52;12.02;;;1.50;60.50;;;;;;5041567;28;20195;-61
2021/01/26 11:55:59;;;;;;;17.80;13.23;;;1.40;71.70;;;;;;5060522;28;20625;-61
2021/01/26 11:58:25;;;;;;;20.38;13.05;;;1.30;83.00;;;;;;5045932;28;20473;-66
2021/01/26 12:00:50;;;;;;;16.42;12.80;;;1.30;89.90;;;;;;5042409;28;20189;-64
2021/01/26 12:03:16;;;;;;;18.63;13.43;;;1.20;94.20;;;;;;5051853;28;20200;-64
2021/01/26 12:05:42;;;;;;;16.97;12.60;;;1.20;99.10;;;;;;5056984;28;20199;-64
2021/01/26 12:08:13;;;;;;;21.05;13.88;;;1.30;99.90;;;;;;5066727;28;20571;-65
2021/01/26 12:10:41;;;;;;;18.88;13.57;;;1.30;99.90;;;;;;5062461;28;20586;-65
2021/01/26 12:13:06;;;;;;;18.83;13.45;;;1.40;99.90;;;;;;5049268;28;20259;-62
2021/01/26 12:15:36;;;;;;;19.40;13.00;;;1.40;99.90;;;;;;5051911;28;20265;-61
2021/01/26 12:18:02;;;;;;;21.02;14.10;;;1.40;99.90;;;;;;5044548;28;20945;-61
2021/01/26 12:20:29;;;;;;;18.70;13.20;;;1.50;99.90;;;;;;5034773;28;20190;-61
2021/01/26 12:22:57;;;;;;;18.40;13.25;;;1.50;99.90;;;;;;5042654;28;20753;-61
2021/01/26 12:25:24;;;;;;;18.73;13.40;;;1.60;99.90;;;;;;5049773;28;20547;-61
2021/01/26 12:27:50;;;;;;;21.95;13.45;;;1.60;99.90;;;;;;5048179;28;20200;-61
2021/01/26 12:30:16;;;;;;;24.17;14.57;;;1.70;99.00;;;;;;5035778;28;20228;-61
2021/01/26 12:32:42;;;;;;;19.85;14.30;;;1.70;98.30;;;;;;5038615;28;20227;-63
2021/01/26 12:35:13;;;;;;;20.13;13.57;;;1.80;95.40;;;;;;5048105;28;20247;-66
2021/01/26 12:37:39;;;;;;;17.80;13.10;;;1.70;94.90;;;;;;5037423;28;20192;-61
2021/01/26 12:40:06;;;;;;;20.20;13.17;;;1.80;93.50;;;;;;5039278;28;20236;-60
2021/01/26 12:42:32;;;;;;;17.80;13.13;;;1.90;92.50;;;;;;5029037;28;20291;-63
2021/01/26 12:44:58;;;;;;;17.70;13.30;;;1.90;87.50;;;;;;5034795;28;20255;-61
2021/01/26 12:47:24;;;;;;;17.30;13.10;;;1.90;83.30;;;;;;5031421;28;20491;-66
2021/01/26 12:49:51;;;;;;;18.88;13.23;;;1.90;79.00;;;;;;5033251;28;20204;-66
2021/01/26 12:52:16;;;;;;;24.30;14.95;;;1.90;81.60;;;;;;5048565;28;20183;-63
2021/01/26 12:54:42;;;;;;;20.87;14.43;;;1.90;84.30;;;;;;5043208;28;20520;-64
2021/01/26 12:57:07;;;;;;;16.70;12.80;;;1.90;83.00;;;;;;5047958;28;20608;-65
2021/01/26 12:59:33;;;;;;;19.40;14.30;;;2.00;86.20;;;;;;5047484;28;20193;-64
2021/01/26 13:02:00;;;;;;;20.83;13.70;;;2.10;86.50;;;;;;5048507;28;20195;-65
2021/01/26 13:04:26;;;;;;;19.75;14.45;;;2.10;85.70;;;;;;5036320;28;20190;-60
2021/01/26 13:06:51;;;;;;;18.20;13.60;;;2.20;77.90;;;;;;5029339;28;20197;-61
2021/01/26 13:09:17;;;;;;;19.33;13.70;;;2.30;72.80;;;;;;5031358;28;20187;-62
2021/01/26 13:11:43;;;;;;;18.43;13.90;;;2.30;64.40;;;;;;5056642;28;20215;-61
2021/01/26 13:14:08;;;;;;;21.00;13.30;;;2.40;57.80;;;;;;5062705;28;20279;-61
2021/01/26 13:16:34;;;;;;;21.87;14.00;;;2.50;48.20;;;;;;5064769;28;20933;-65
2021/01/26 13:19:00;;;;;;;17.90;13.23;;;2.50;44.10;;;;;;5051857;28;20653;-61